Terminal Aerodrome Forecast
Issued by NWS

Home | Current Version | Previous Version | Text Only | Print | Product List | Glossary On
Versions: 1 2 3 4 5 6 7 8 9 10 11 12
000
FTUS45 KRIW 200500
TAFLND
TAF
KLND 200527Z 2006/2106 VRB05KT P6SM VCSH SCT080 BKN120
     FM201300 VRB05KT P6SM FEW100 SCT200
     FM202100 04007KT P6SM FEW080 SCT120
     FM210300 24007KT P6SM SCT120 BKN200=

USA.gov is the U.S. government's official web portal to all federal, state and local government web resources and services.